Time;durP1;ratioP1;P1;durP2;ratioP2;P2;SDS_P1;SDS_P2;PMS_P1;PMS_P2;Temp;Humidity;BMP_temperature;BMP_pressure;BME280_temperature;BME280_humidity;BME280_pressure;Samples;Min_cycle;Max_cycle;Signal;HPM_P1;HPM_P2
2022/12/11 00:01:53;;;;;;;14.33;7.60;;;-4.20;99.90;;;;;;4197412;28;20255;-66
2022/12/11 00:03:54;;;;;;;17.07;7.13;;;-4.30;99.90;;;;;;4196477;28;20449;-65
2022/12/11 00:05:55;;;;;;;12.30;6.53;;;-4.30;99.90;;;;;;4197487;28;20320;-65
2022/12/11 00:07:56;;;;;;;14.40;6.60;;;-4.40;99.90;;;;;;4197366;28;20200;-65
2022/12/11 00:09:56;;;;;;;12.80;6.60;;;-4.40;99.90;;;;;;4197543;28;20187;-66
2022/12/11 00:11:57;;;;;;;12.60;6.33;;;-4.50;99.90;;;;;;4197870;28;20429;-65
2022/12/11 00:13:58;;;;;;;15.70;7.23;;;-4.50;99.90;;;;;;4196527;28;20305;-65
2022/12/11 00:15:59;;;;;;;14.63;7.37;;;-4.60;99.90;;;;;;4197336;28;20184;-66
2022/12/11 00:18:00;;;;;;;13.20;6.47;;;-4.70;99.90;;;;;;4197671;28;20260;-66
2022/12/11 00:20:00;;;;;;;12.07;6.13;;;-4.60;99.90;;;;;;4197126;28;20176;-65
2022/12/11 00:22:01;;;;;;;11.33;5.90;;;-4.70;99.90;;;;;;4197246;28;20560;-65
2022/12/11 00:24:01;;;;;;;14.57;6.30;;;-4.60;99.90;;;;;;4196715;28;20234;-65
2022/12/11 00:26:11;;;;;;;14.27;5.93;;;-4.70;99.90;;;;;;4197273;28;20200;-66
2022/12/11 00:28:14;;;;;;;13.10;6.13;;;-4.80;99.90;;;;;;4196183;28;20288;-64
2022/12/11 00:30:15;;;;;;;11.33;5.63;;;-4.80;99.90;;;;;;4197584;28;20434;-65
2022/12/11 00:32:15;;;;;;;12.07;5.47;;;-4.90;99.90;;;;;;4196596;28;20512;-65
2022/12/11 00:34:16;;;;;;;13.30;5.70;;;-4.90;99.90;;;;;;4197346;28;20211;-65
2022/12/11 00:36:23;;;;;;;14.60;6.70;;;-4.90;99.90;;;;;;4197361;28;20175;-66
2022/12/11 00:38:24;;;;;;;13.53;6.57;;;-4.90;99.90;;;;;;4197220;28;20562;-65
2022/12/11 00:40:25;;;;;;;12.87;7.03;;;-5.00;99.90;;;;;;4197279;28;20509;-65
2022/12/11 00:42:25;;;;;;;15.27;6.53;;;-5.00;99.90;;;;;;4196758;28;20658;-65
2022/12/11 00:44:26;;;;;;;15.13;6.83;;;-5.00;99.90;;;;;;4197089;28;20266;-66
2022/12/11 00:46:27;;;;;;;14.30;6.40;;;-5.10;99.90;;;;;;4197015;28;20226;-65
2022/12/11 00:48:28;;;;;;;14.50;6.90;;;-5.20;99.90;;;;;;4196866;28;20184;-65
2022/12/11 00:50:28;;;;;;;11.40;6.13;;;-5.30;99.90;;;;;;4196741;28;20227;-65
2022/12/11 00:52:29;;;;;;;16.40;7.13;;;-5.30;99.90;;;;;;4196034;28;20658;-65
2022/12/11 00:54:30;;;;;;;12.37;6.30;;;-5.30;99.90;;;;;;4196766;28;20575;-65
2022/12/11 00:56:30;;;;;;;14.10;6.30;;;-5.40;99.90;;;;;;4196601;28;20211;-65
2022/12/11 00:58:31;;;;;;;14.97;6.80;;;-5.40;99.90;;;;;;4195440;28;20635;-65
2022/12/11 01:00:32;;;;;;;12.60;6.70;;;-5.40;99.90;;;;;;4196474;28;20152;-66
2022/12/11 01:02:33;;;;;;;15.90;6.80;;;-5.50;99.90;;;;;;4194816;28;20262;-65
2022/12/11 01:04:35;;;;;;;16.70;7.40;;;-5.70;99.90;;;;;;4196770;28;20217;-65
2022/12/11 01:06:36;;;;;;;14.27;6.87;;;-5.70;99.90;;;;;;4196786;28;20790;-65
2022/12/11 01:08:37;;;;;;;14.17;6.77;;;-5.60;99.90;;;;;;4194278;28;20500;-65
2022/12/11 01:10:37;;;;;;;16.00;8.47;;;-5.60;99.90;;;;;;4182036;28;20242;-65
2022/12/11 01:12:38;;;;;;;15.23;7.47;;;-5.50;99.90;;;;;;4178963;28;20192;-65
2022/12/11 01:14:39;;;;;;;17.00;8.13;;;-5.50;99.90;;;;;;4178485;28;20736;-66
2022/12/11 01:16:39;;;;;;;12.53;6.47;;;-5.30;99.90;;;;;;4179823;28;20583;-65
2022/12/11 01:18:41;;;;;;;22.47;7.83;;;-5.10;99.90;;;;;;4180287;28;20555;-65
2022/12/11 01:20:42;;;;;;;11.27;7.10;;;-5.00;99.90;;;;;;4180159;28;20173;-65
2022/12/11 01:22:43;;;;;;;24.10;13.63;;;-4.90;99.90;;;;;;4178997;28;20785;-65
2022/12/11 01:24:43;;;;;;;22.77;10.90;;;-4.90;99.90;;;;;;4179489;28;20428;-65
2022/12/11 01:26:44;;;;;;;24.27;10.47;;;-4.80;99.90;;;;;;4179811;28;20197;-65
2022/12/11 01:28:48;;;;;;;20.73;10.63;;;-4.60;99.90;;;;;;4179684;28;20686;-65
2022/12/11 01:30:49;;;;;;;20.03;9.13;;;-4.50;99.90;;;;;;4180553;28;20192;-65
2022/12/11 01:32:49;;;;;;;17.10;9.53;;;-4.40;99.90;;;;;;4178457;28;20444;-65
2022/12/11 01:34:50;;;;;;;21.30;8.90;;;-4.30;99.90;;;;;;4180394;28;20231;-65
2022/12/11 01:36:51;;;;;;;16.77;7.17;;;-4.20;99.90;;;;;;4180200;28;20227;-65
2022/12/11 01:38:53;;;;;;;12.90;7.37;;;-4.10;99.90;;;;;;4180172;28;20207;-65
2022/12/11 01:40:53;;;;;;;16.00;7.63;;;-4.00;99.90;;;;;;4179743;28;20419;-65
2022/12/11 01:42:54;;;;;;;14.77;7.63;;;-3.90;99.90;;;;;;4178781;28;20443;-65
2022/12/11 01:45:20;;;;;;;15.57;7.73;;;-3.80;99.90;;;;;;4179958;28;20178;-65
2022/12/11 01:47:20;;;;;;;14.50;7.80;;;-3.80;99.90;;;;;;4179378;28;20240;-65
2022/12/11 01:49:25;;;;;;;17.10;7.93;;;-3.70;99.90;;;;;;4179238;28;20845;-65
2022/12/11 01:51:28;;;;;;;16.47;8.57;;;-3.60;99.90;;;;;;4179436;28;20185;-65
2022/12/11 01:53:34;;;;;;;16.67;8.40;;;-3.60;99.90;;;;;;4177786;28;20846;-65
2022/12/11 01:55:37;;;;;;;15.43;8.53;;;-3.50;99.90;;;;;;4177964;28;20896;-65
2022/12/11 01:57:41;;;;;;;15.60;7.07;;;-3.50;99.90;;;;;;4179639;28;21051;-66
2022/12/11 01:59:44;;;;;;;15.83;7.97;;;-3.40;99.90;;;;;;4179021;28;20423;-65
2022/12/11 02:01:56;;;;;;;17.20;8.47;;;-3.30;99.90;;;;;;4177809;28;20429;-65
2022/12/11 02:03:57;;;;;;;15.00;7.50;;;-3.20;99.90;;;;;;4177239;28;21128;-65
2022/12/11 02:06:02;;;;;;;14.20;7.90;;;-3.30;99.90;;;;;;4179179;28;20427;-65
2022/12/11 02:08:04;;;;;;;12.27;6.93;;;-3.30;99.90;;;;;;4179417;28;20433;-65
2022/12/11 02:10:06;;;;;;;15.27;7.70;;;-3.30;99.90;;;;;;4179163;28;20425;-65
2022/12/11 02:12:20;;;;;;;16.53;7.43;;;-3.40;99.90;;;;;;4159870;28;20454;-66
2022/12/11 02:14:54;;;;;;;11.90;6.80;;;-3.40;99.90;;;;;;4178700;28;20876;-65
2022/12/11 02:17:13;;;;;;;10.90;5.93;;;-3.40;99.90;;;;;;4177884;28;20415;-65
2022/12/11 02:19:38;;;;;;;15.37;7.43;;;-3.50;99.90;;;;;;4178090;28;20410;-65
2022/12/11 02:21:50;;;;;;;11.97;6.20;;;-3.50;99.90;;;;;;4177823;28;20413;-65
2022/12/11 02:24:31;;;;;;;12.97;6.57;;;-3.40;99.90;;;;;;4177016;28;20449;-65
2022/12/11 02:27:41;;;;;;;13.87;7.37;;;-3.60;99.90;;;;;;4163700;28;20486;-65
2022/12/11 02:30:06;;;;;;;12.57;6.13;;;-3.60;99.90;;;;;;4166330;28;20432;-65
2022/12/11 02:32:18;;;;;;;13.47;7.07;;;-3.40;99.90;;;;;;4177052;28;20510;-65
2022/12/11 02:34:31;;;;;;;12.90;6.70;;;-3.30;99.90;;;;;;4178835;28;20463;-65
2022/12/11 02:36:39;;;;;;;14.07;7.03;;;-3.40;99.90;;;;;;4177658;28;20506;-65
2022/12/11 02:38:49;;;;;;;13.93;6.70;;;-3.40;99.90;;;;;;4177363;28;20942;-65
2022/12/11 02:40:53;;;;;;;12.73;6.73;;;-3.50;99.80;;;;;;4161462;28;20439;-65
2022/12/11 02:42:57;;;;;;;13.53;6.70;;;-3.70;99.80;;;;;;4177021;28;20857;-65
2022/12/11 02:45:00;;;;;;;14.20;7.47;;;-3.80;99.70;;;;;;4177656;28;20436;-65
2022/12/11 02:47:03;;;;;;;17.10;7.37;;;-3.80;99.80;;;;;;4177684;28;20854;-65
2022/12/11 02:49:07;;;;;;;12.70;6.70;;;-4.00;99.90;;;;;;4179070;28;21229;-68
2022/12/11 02:51:10;;;;;;;11.77;5.80;;;-4.10;99.90;;;;;;4179945;28;20441;-65
2022/12/11 02:53:15;;;;;;;12.57;7.00;;;-4.30;99.90;;;;;;4176659;28;20530;-65
2022/12/11 02:55:16;;;;;;;12.77;6.43;;;-4.40;99.90;;;;;;4193536;28;20478;-65
2022/12/11 02:57:26;;;;;;;14.57;6.73;;;-4.50;99.90;;;;;;4210676;28;20416;-64
2022/12/11 02:59:37;;;;;;;12.27;5.63;;;-4.60;99.90;;;;;;4193848;28;20411;-65
2022/12/11 03:01:37;;;;;;;13.80;7.17;;;-4.70;99.90;;;;;;4194032;28;20422;-65
2022/12/11 03:03:38;;;;;;;13.70;7.13;;;-4.70;99.90;;;;;;4194672;28;20805;-64
2022/12/11 03:05:40;;;;;;;15.87;6.93;;;-4.80;99.90;;;;;;4195176;28;20516;-65
2022/12/11 03:07:43;;;;;;;13.47;8.07;;;-4.80;99.90;;;;;;4193873;28;20553;-65
2022/12/11 03:09:46;;;;;;;12.63;6.90;;;-4.90;99.90;;;;;;4194262;28;20415;-65
2022/12/11 03:11:47;;;;;;;16.60;6.77;;;-5.00;99.90;;;;;;4187391;28;20441;-65
2022/12/11 03:13:47;;;;;;;14.83;7.43;;;-5.10;99.90;;;;;;4192493;28;20465;-65
2022/12/11 03:16:08;;;;;;;17.03;8.10;;;-5.00;99.90;;;;;;4187281;28;20188;-65
2022/12/11 03:18:24;;;;;;;15.23;6.73;;;-5.20;99.90;;;;;;4195299;28;20219;-65
2022/12/11 03:21:03;;;;;;;14.80;7.50;;;-5.20;99.90;;;;;;4194073;28;20868;-65
2022/12/11 03:23:27;;;;;;;15.20;8.50;;;-5.20;99.90;;;;;;4193829;28;20439;-65
2022/12/11 03:25:51;;;;;;;13.33;6.10;;;-5.20;99.90;;;;;;4197429;28;20429;-65
2022/12/11 03:27:58;;;;;;;11.90;6.40;;;-5.30;99.90;;;;;;4197848;28;20426;-66
2022/12/11 03:30:09;;;;;;;16.03;7.43;;;-5.40;99.90;;;;;;4199566;28;20429;-66
2022/12/11 03:32:18;;;;;;;14.13;6.93;;;-5.50;99.90;;;;;;4196718;28;20920;-66
2022/12/11 03:34:30;;;;;;;17.50;6.40;;;-5.40;99.90;;;;;;4198202;28;20556;-66
2022/12/11 03:36:35;;;;;;;14.80;6.67;;;-5.50;99.90;;;;;;4196574;28;20424;-66
2022/12/11 03:38:51;;;;;;;14.33;7.17;;;-5.50;99.90;;;;;;4196964;28;20454;-66
2022/12/11 03:40:55;;;;;;;16.27;7.23;;;-5.50;99.90;;;;;;4197377;28;20992;-65
2022/12/11 03:42:57;;;;;;;12.70;6.27;;;-5.50;99.90;;;;;;4196564;28;20461;-65
2022/12/11 03:45:01;;;;;;;15.73;6.27;;;-5.50;99.90;;;;;;4197215;28;20928;-66
2022/12/11 03:47:06;;;;;;;14.43;6.60;;;-5.60;99.90;;;;;;4197119;28;20426;-65
2022/12/11 03:49:15;;;;;;;13.40;7.70;;;-5.70;99.90;;;;;;4196865;28;20418;-65
2022/12/11 03:51:17;;;;;;;15.43;7.10;;;-5.80;99.90;;;;;;4197777;28;20402;-65
2022/12/11 03:53:19;;;;;;;13.67;7.73;;;-5.90;99.90;;;;;;4196079;28;21034;-66
2022/12/11 03:55:21;;;;;;;16.50;7.13;;;-6.10;99.90;;;;;;4180249;28;20467;-66
2022/12/11 03:57:28;;;;;;;11.70;6.23;;;-6.20;99.90;;;;;;4213473;28;20424;-65
2022/12/11 03:59:29;;;;;;;15.10;7.35;;;-6.20;99.90;;;;;;4213464;28;20413;-65
2022/12/11 04:01:29;;;;;;;16.70;7.50;;;-6.20;99.90;;;;;;4197689;28;20189;-65
2022/12/11 04:03:30;;;;;;;21.60;8.57;;;-6.20;99.90;;;;;;4197221;28;20632;-65
2022/12/11 04:05:31;;;;;;;19.50;8.30;;;-6.20;99.90;;;;;;4197672;28;20176;-65
2022/12/11 04:07:31;;;;;;;18.60;7.23;;;-6.10;99.90;;;;;;4197908;28;20586;-65
2022/12/11 04:09:32;;;;;;;19.53;9.37;;;-6.10;99.90;;;;;;4197831;28;20885;-65
2022/12/11 04:11:33;;;;;;;17.47;7.97;;;-6.10;99.90;;;;;;4197394;28;20239;-65
2022/12/11 04:13:34;;;;;;;15.23;7.43;;;-6.10;99.90;;;;;;4196937;28;20944;-65
2022/12/11 04:15:36;;;;;;;15.40;7.53;;;-6.20;99.90;;;;;;4197530;28;20262;-65
2022/12/11 04:24:37;;;;;;;16.63;6.83;;;-6.50;99.90;;;;;;4197688;28;20409;-66
2022/12/11 04:26:37;;;;;;;13.18;6.70;;;-6.50;99.90;;;;;;4197592;28;20435;-65
2022/12/11 04:28:40;;;;;;;14.97;7.50;;;-6.50;99.90;;;;;;4197341;28;20692;-65
2022/12/11 04:30:40;;;;;;;17.67;7.30;;;-6.50;99.90;;;;;;4197288;28;20184;-65
2022/12/11 04:32:41;;;;;;;15.13;6.17;;;-6.60;99.90;;;;;;4195119;28;20430;-65
2022/12/11 04:34:42;;;;;;;15.63;7.00;;;-6.60;99.90;;;;;;4196486;28;20200;-66
2022/12/11 04:36:43;;;;;;;16.20;8.20;;;-6.70;99.90;;;;;;4197462;28;20544;-65
2022/12/11 04:38:43;;;;;;;14.70;6.80;;;-6.70;99.90;;;;;;4197340;28;20176;-65
2022/12/11 04:40:44;;;;;;;14.47;7.30;;;-6.70;99.90;;;;;;4197219;28;20187;-65
2022/12/11 04:42:45;;;;;;;15.07;7.17;;;-6.70;99.90;;;;;;4196795;28;20271;-65
2022/12/11 04:44:46;;;;;;;15.17;6.47;;;-6.70;99.90;;;;;;4197122;28;20191;-65
2022/12/11 04:46:46;;;;;;;13.70;6.03;;;-6.80;99.90;;;;;;4196691;28;20711;-65
2022/12/11 04:48:48;;;;;;;14.87;7.00;;;-6.90;99.90;;;;;;4195779;28;20207;-65
2022/12/11 04:50:49;;;;;;;14.20;6.23;;;-6.80;99.90;;;;;;4197005;28;20184;-65
2022/12/11 04:52:49;;;;;;;13.70;6.87;;;-6.80;99.90;;;;;;4196412;28;21094;-65
2022/12/11 04:54:50;;;;;;;15.53;6.43;;;-6.80;99.90;;;;;;4196887;28;20569;-66
2022/12/11 04:56:51;;;;;;;12.47;5.97;;;-6.90;99.90;;;;;;4195656;28;20195;-65
2022/12/11 04:58:51;;;;;;;13.13;5.70;;;-6.90;99.90;;;;;;4197184;28;20270;-65
2022/12/11 05:00:53;;;;;;;13.20;5.83;;;-6.90;99.90;;;;;;4196595;28;20192;-65
2022/12/11 05:02:53;;;;;;;14.43;6.32;;;-7.00;99.90;;;;;;4196353;28;20299;-65
2022/12/11 05:04:54;;;;;;;10.97;5.20;;;-7.00;99.90;;;;;;4190502;28;20188;-65
2022/12/11 05:06:55;;;;;;;15.20;6.10;;;-7.10;99.90;;;;;;4180103;28;20184;-65
2022/12/11 05:08:55;;;;;;;9.77;4.63;;;-7.20;99.90;;;;;;4180324;28;20184;-65
2022/12/11 05:10:58;;;;;;;12.50;5.93;;;-7.20;99.90;;;;;;4179734;28;20191;-65
2022/12/11 05:12:59;;;;;;;13.95;6.18;;;-7.20;99.90;;;;;;4178876;28;20200;-65
2022/12/11 05:14:59;;;;;;;12.00;5.70;;;-7.20;99.90;;;;;;4178146;28;20518;-65
2022/12/11 05:17:00;;;;;;;12.53;5.77;;;-7.10;99.90;;;;;;4179420;28;20264;-65
2022/12/11 05:19:01;;;;;;;11.40;5.70;;;-6.90;99.90;;;;;;4179542;28;20185;-66
2022/12/11 05:21:06;;;;;;;12.53;5.33;;;-6.80;99.90;;;;;;4179401;28;20215;-65
2022/12/11 05:23:07;;;;;;;11.07;5.50;;;-6.80;99.90;;;;;;4188374;28;20203;-64
2022/12/11 05:25:08;;;;;;;12.77;5.77;;;-6.80;99.90;;;;;;4194539;28;20434;-65
2022/12/11 05:27:09;;;;;;;9.83;5.13;;;-6.80;99.90;;;;;;4195744;28;20678;-65
2022/12/11 05:29:10;;;;;;;13.40;6.07;;;-6.80;99.90;;;;;;4196306;28;20733;-66
2022/12/11 05:31:14;;;;;;;12.10;6.10;;;-7.00;99.90;;;;;;4197232;28;20280;-66
2022/12/11 05:33:15;;;;;;;9.93;5.20;;;-7.00;99.90;;;;;;4195596;28;20211;-65
2022/12/11 05:35:16;;;;;;;12.70;5.90;;;-7.00;99.90;;;;;;4195959;28;20219;-66
2022/12/11 05:37:17;;;;;;;13.73;6.63;;;-6.90;99.90;;;;;;4195943;28;20245;-66
2022/12/11 05:39:18;;;;;;;13.43;6.73;;;-6.80;99.90;;;;;;4195686;28;20266;-65
2022/12/11 05:41:22;;;;;;;13.13;6.13;;;-6.60;99.90;;;;;;4195841;28;20463;-65
2022/12/11 05:43:23;;;;;;;14.30;6.53;;;-6.50;99.90;;;;;;4193747;28;20503;-65
2022/12/11 05:45:24;;;;;;;18.63;6.60;;;-6.40;99.90;;;;;;4195699;28;20422;-66
2022/12/11 05:47:24;;;;;;;11.23;6.13;;;-6.30;99.90;;;;;;4196445;28;20475;-65
2022/12/11 05:49:25;;;;;;;16.80;5.77;;;-6.30;99.90;;;;;;4195703;28;20183;-66
2022/12/11 05:51:28;;;;;;;12.77;6.10;;;-6.20;99.90;;;;;;4195805;28;20179;-66
2022/12/11 05:53:29;;;;;;;10.90;5.50;;;-6.20;99.90;;;;;;4195195;28;20203;-65
2022/12/11 05:55:33;;;;;;;12.70;6.83;;;-6.20;99.90;;;;;;4194528;28;20967;-65
2022/12/11 05:57:34;;;;;;;12.53;6.10;;;-6.30;99.90;;;;;;4194618;28;20413;-66
2022/12/11 05:59:35;;;;;;;12.07;6.23;;;-6.20;99.90;;;;;;4195992;28;20417;-66
2022/12/11 06:01:40;;;;;;;10.00;4.67;;;-6.30;99.90;;;;;;4195950;28;20712;-66
2022/12/11 06:03:41;;;;;;;10.60;5.57;;;-6.30;99.90;;;;;;4195126;28;20306;-66
2022/12/11 06:05:42;;;;;;;9.83;5.17;;;-6.50;99.90;;;;;;4195625;28;20932;-66
2022/12/11 06:07:43;;;;;;;7.67;3.97;;;-6.60;99.90;;;;;;4195641;28;20422;-66
2022/12/11 06:09:43;;;;;;;10.80;4.43;;;-6.60;99.90;;;;;;4195587;28;20948;-66
2022/12/11 06:11:44;;;;;;;11.50;4.63;;;-6.60;99.90;;;;;;4195438;28;20289;-66
2022/12/11 06:13:46;;;;;;;7.77;4.10;;;-6.70;99.90;;;;;;4194785;28;20238;-65
2022/12/11 06:15:47;;;;;;;11.63;5.07;;;-6.70;99.90;;;;;;4195378;28;20457;-66
2022/12/11 06:17:47;;;;;;;9.63;4.17;;;-6.70;99.90;;;;;;4195320;28;20228;-66
2022/12/11 06:19:48;;;;;;;12.67;5.47;;;-6.80;99.90;;;;;;4195471;28;20670;-65
2022/12/11 06:21:49;;;;;;;10.30;4.33;;;-6.70;99.90;;;;;;4195504;28;20556;-66
2022/12/11 06:23:53;;;;;;;7.90;4.03;;;-6.70;99.90;;;;;;4195025;28;20616;-65
2022/12/11 06:25:54;;;;;;;9.57;4.25;;;-6.80;99.90;;;;;;4195347;28;20180;-65
2022/12/11 06:27:55;;;;;;;9.80;5.53;;;-6.80;99.90;;;;;;4195534;28;20646;-66
2022/12/11 06:29:56;;;;;;;13.53;6.33;;;-7.00;99.90;;;;;;4195285;28;20203;-65
2022/12/11 06:31:56;;;;;;;15.27;7.40;;;-7.10;99.90;;;;;;4193981;28;20661;-66
2022/12/11 06:33:57;;;;;;;17.73;8.20;;;-7.20;99.90;;;;;;4194677;28;20446;-66
2022/12/11 06:36:03;;;;;;;19.37;8.80;;;-7.30;99.80;;;;;;4195108;28;20186;-65
2022/12/11 06:38:04;;;;;;;14.77;7.50;;;-7.40;99.90;;;;;;4195253;28;20204;-66
2022/12/11 06:40:07;;;;;;;18.43;8.57;;;-7.50;99.90;;;;;;4195343;28;20274;-65
2022/12/11 06:42:08;;;;;;;15.73;7.40;;;-7.60;99.90;;;;;;4194395;28;20182;-65
2022/12/11 06:44:08;;;;;;;15.67;7.00;;;-7.60;99.90;;;;;;4193500;28;20212;-64
2022/12/11 06:46:16;;;;;;;14.63;6.23;;;-7.70;99.90;;;;;;4195309;28;20691;-65
2022/12/11 06:48:18;;;;;;;11.75;7.18;;;-7.70;99.90;;;;;;4195070;28;20178;-64
2022/12/11 06:50:19;;;;;;;12.50;7.35;;;-7.80;99.90;;;;;;4195110;28;20186;-65
2022/12/11 06:52:24;;;;;;;10.67;5.40;;;-7.80;99.90;;;;;;4193112;28;20215;-64
2022/12/11 06:54:26;;;;;;;12.63;6.25;;;-7.80;99.90;;;;;;4194643;28;20213;-65
2022/12/11 06:56:27;;;;;;;9.88;5.68;;;-7.80;99.90;;;;;;4194936;28;20206;-65
2022/12/11 06:58:28;;;;;;;10.83;5.07;;;-7.80;99.90;;;;;;4196130;28;20187;-65
2022/12/11 07:00:29;;;;;;;11.37;5.97;;;-7.80;99.90;;;;;;4198315;28;20590;-64
2022/12/11 07:02:29;;;;;;;11.85;5.72;;;-7.80;99.90;;;;;;4197670;28;20183;-65
2022/12/11 07:04:30;;;;;;;11.30;5.10;;;-7.80;99.90;;;;;;4198038;28;20592;-64
2022/12/11 07:06:31;;;;;;;11.25;5.97;;;-7.70;99.90;;;;;;4197725;28;20591;-66
2022/12/11 07:08:32;;;;;;;14.57;6.03;;;-7.50;99.90;;;;;;4197829;28;20264;-65
2022/12/11 07:10:33;;;;;;;12.03;6.20;;;-7.50;99.90;;;;;;4197892;28;20187;-65
2022/12/11 07:12:34;;;;;;;17.77;7.27;;;-7.50;99.90;;;;;;4197489;28;20194;-65
2022/12/11 07:14:35;;;;;;;15.50;6.28;;;-7.30;99.90;;;;;;4193898;28;20257;-65
2022/12/11 07:16:35;;;;;;;12.10;5.17;;;-7.30;99.90;;;;;;4181533;28;20854;-66
2022/12/11 07:18:42;;;;;;;11.63;6.03;;;-7.30;99.90;;;;;;4181449;28;20647;-65
2022/12/11 07:20:43;;;;;;;10.60;5.40;;;-7.40;99.90;;;;;;4190953;28;20191;-66
2022/12/11 07:22:44;;;;;;;12.40;5.70;;;-7.40;99.90;;;;;;4199832;28;20273;-66
2022/12/11 07:24:45;;;;;;;11.70;6.27;;;-7.50;99.90;;;;;;4198105;28;20698;-65
2022/12/11 07:26:45;;;;;;;13.33;6.07;;;-7.50;99.90;;;;;;4197663;28;20543;-65
2022/12/11 07:28:46;;;;;;;15.57;6.60;;;-7.50;99.90;;;;;;4197584;28;20653;-66
2022/12/11 07:30:47;;;;;;;13.43;6.75;;;-7.60;99.90;;;;;;4200053;28;20187;-65
2022/12/11 07:32:48;;;;;;;13.03;7.03;;;-7.60;99.90;;;;;;4198068;28;20213;-66
2022/12/11 07:34:48;;;;;;;16.53;7.23;;;-7.40;99.90;;;;;;4203980;28;20203;-67
2022/12/11 07:36:49;;;;;;;15.97;7.23;;;-7.50;99.90;;;;;;4205918;28;20274;-66
2022/12/11 07:38:50;;;;;;;18.10;10.03;;;-7.40;99.90;;;;;;4192010;28;20197;-66
2022/12/11 07:40:51;;;;;;;17.15;9.43;;;-7.40;99.90;;;;;;4197474;28;20221;-65
2022/12/11 07:42:52;;;;;;;15.87;8.93;;;-7.30;99.90;;;;;;4196714;28;20196;-66
2022/12/11 07:44:52;;;;;;;14.93;7.83;;;-7.30;99.90;;;;;;4196227;28;20686;-66
2022/12/11 07:46:53;;;;;;;24.93;11.30;;;-7.30;99.80;;;;;;4197445;28;20234;-65
2022/12/11 07:48:54;;;;;;;22.53;11.67;;;-7.20;99.60;;;;;;4197607;28;20175;-65
2022/12/11 07:50:54;;;;;;;26.10;13.90;;;-7.30;99.20;;;;;;4196312;28;20225;-66
2022/12/11 07:52:55;;;;;;;28.10;13.33;;;-7.20;99.20;;;;;;4196731;28;20286;-65
2022/12/11 07:54:56;;;;;;;21.87;11.20;;;-7.10;99.00;;;;;;4196014;28;20195;-65
2022/12/11 07:56:56;;;;;;;21.47;10.70;;;-7.10;99.60;;;;;;4197401;28;20396;-66
2022/12/11 07:59:03;;;;;;;23.23;13.03;;;-7.20;99.30;;;;;;4197379;28;20187;-65
2022/12/11 08:01:05;;;;;;;16.70;8.67;;;-7.20;99.60;;;;;;4197483;28;20172;-66
2022/12/11 08:03:06;;;;;;;17.50;8.77;;;-7.20;99.90;;;;;;4196851;28;20442;-65
2022/12/11 08:05:07;;;;;;;22.53;8.97;;;-7.20;99.90;;;;;;4197818;28;20421;-65
2022/12/11 08:07:07;;;;;;;17.60;9.77;;;-7.20;99.90;;;;;;4197394;28;20280;-65
2022/12/11 08:09:11;;;;;;;16.43;8.73;;;-7.10;99.90;;;;;;4196769;28;20452;-65
2022/12/11 08:11:14;;;;;;;13.43;8.43;;;-7.00;99.90;;;;;;4196555;28;20183;-65
2022/12/11 08:13:14;;;;;;;15.27;8.53;;;-7.00;99.90;;;;;;4196427;28;20213;-65
2022/12/11 08:15:15;;;;;;;18.57;9.00;;;-6.90;99.90;;;;;;4197108;28;20480;-66
2022/12/11 08:17:16;;;;;;;13.87;7.40;;;-6.80;99.90;;;;;;4198259;28;20180;-66
2022/12/11 08:19:17;;;;;;;14.10;6.50;;;-6.80;99.90;;;;;;4196907;28;20646;-65
2022/12/11 08:21:22;;;;;;;13.10;7.37;;;-6.70;99.90;;;;;;4196851;28;20179;-65
2022/12/11 08:23:23;;;;;;;18.20;8.00;;;-6.60;99.80;;;;;;4196335;28;20192;-64
2022/12/11 08:25:24;;;;;;;14.53;7.63;;;-6.50;99.70;;;;;;4196965;28;20426;-66
2022/12/11 08:27:25;;;;;;;21.07;9.60;;;-6.40;99.80;;;;;;4195542;28;20214;-66
2022/12/11 08:29:26;;;;;;;15.43;8.13;;;-6.40;99.90;;;;;;4196711;28;20426;-66
2022/12/11 08:31:27;;;;;;;16.40;8.23;;;-6.30;99.70;;;;;;4196917;28;20180;-66
2022/12/11 08:33:28;;;;;;;14.67;7.73;;;-6.30;99.40;;;;;;4196083;28;20207;-66
2022/12/11 08:35:28;;;;;;;15.57;7.33;;;-6.20;99.60;;;;;;4196655;28;20562;-66
2022/12/11 08:37:29;;;;;;;13.13;8.23;;;-6.00;99.90;;;;;;4196637;28;20176;-66
2022/12/11 08:39:30;;;;;;;13.10;7.23;;;-6.00;99.90;;;;;;4196762;28;20172;-65
2022/12/11 08:41:30;;;;;;;15.23;8.50;;;-5.90;99.90;;;;;;4196674;28;20191;-66
2022/12/11 08:43:32;;;;;;;20.63;9.67;;;-5.80;99.80;;;;;;4195935;28;20238;-66
2022/12/11 08:45:33;;;;;;;17.53;9.13;;;-5.70;99.50;;;;;;4196426;28;20184;-66
2022/12/11 08:47:34;;;;;;;21.50;9.93;;;-5.70;99.40;;;;;;4196155;28;20456;-66
2022/12/11 08:49:35;;;;;;;19.83;9.73;;;-5.60;99.20;;;;;;4196697;28;20187;-66
2022/12/11 08:51:36;;;;;;;18.20;8.80;;;-5.50;99.00;;;;;;4200532;28;20184;-65
2022/12/11 08:53:37;;;;;;;15.03;7.97;;;-5.30;98.70;;;;;;4197583;28;20457;-66
2022/12/11 08:55:38;;;;;;;37.00;20.63;;;-5.30;99.70;;;;;;4194952;28;20223;-66
2022/12/11 08:57:39;;;;;;;27.27;14.97;;;-5.20;99.50;;;;;;4196176;28;20422;-66
2022/12/11 08:59:39;;;;;;;33.27;18.23;;;-5.10;99.70;;;;;;4195162;28;20172;-66
2022/12/11 09:01:40;;;;;;;26.37;14.97;;;-4.90;99.00;;;;;;4196288;28;20184;-65
2022/12/11 09:03:41;;;;;;;30.43;14.23;;;-4.80;99.40;;;;;;4195875;28;20585;-66
2022/12/11 09:05:42;;;;;;;23.33;11.43;;;-4.60;98.80;;;;;;4195068;28;20179;-66
2022/12/11 09:07:43;;;;;;;18.00;8.30;;;-4.50;99.20;;;;;;4196223;28;20188;-66
2022/12/11 09:09:43;;;;;;;15.70;7.77;;;-4.30;99.60;;;;;;4196195;28;20183;-65
2022/12/11 09:11:45;;;;;;;14.37;7.47;;;-4.10;99.50;;;;;;4195986;28;20189;-66
2022/12/11 09:13:46;;;;;;;13.10;6.63;;;-3.80;99.20;;;;;;4188659;28;20213;-67
2022/12/11 09:15:47;;;;;;;11.70;7.43;;;-3.60;99.10;;;;;;4191547;28;20560;-65
2022/12/11 09:17:47;;;;;;;13.43;7.73;;;-3.40;98.60;;;;;;4193712;28;20182;-66
2022/12/11 09:19:48;;;;;;;14.73;7.50;;;-3.20;98.00;;;;;;4207251;28;20643;-65
2022/12/11 09:21:48;;;;;;;11.63;6.53;;;-3.10;98.80;;;;;;4198644;28;20599;-65
2022/12/11 09:23:54;;;;;;;13.43;7.07;;;-2.90;98.10;;;;;;4208799;28;20781;-66
2022/12/11 09:25:55;;;;;;;16.87;8.43;;;-2.70;99.90;;;;;;4198288;28;20182;-66
2022/12/11 09:27:55;;;;;;;13.97;7.40;;;-2.40;98.70;;;;;;4208687;28;20947;-65
2022/12/11 09:29:56;;;;;;;13.27;8.03;;;-1.80;99.90;;;;;;4197731;28;20187;-65
2022/12/11 09:31:57;;;;;;;15.63;8.43;;;-1.40;99.90;;;;;;4211108;28;20187;-66
2022/12/11 09:34:02;;;;;;;94.73;14.33;;;-0.90;99.90;;;;;;4196635;28;20212;-66
2022/12/11 09:36:05;;;;;;;11.80;6.73;;;-0.60;99.90;;;;;;4211080;28;20934;-67
2022/12/11 09:38:05;;;;;;;8.50;5.63;;;-0.30;99.90;;;;;;4195224;28;20435;-66
2022/12/11 09:40:09;;;;;;;14.40;8.43;;;-0.10;99.90;;;;;;4210039;28;20424;-66
2022/12/11 09:42:45;;;;;;;11.57;6.63;;;0.20;99.60;;;;;;4195627;28;20180;-64
2022/12/11 09:44:53;;;;;;;12.30;6.50;;;0.50;99.90;;;;;;4186800;28;20428;-69
2022/12/11 09:46:55;;;;;;;11.13;7.47;;;1.00;99.90;;;;;;4205021;28;20468;-70
2022/12/11 09:48:56;;;;;;;9.57;5.87;;;1.40;97.10;;;;;;4201358;28;20417;-70
2022/12/11 09:50:57;;;;;;;10.40;6.47;;;1.80;97.10;;;;;;4204844;28;20425;-71
2022/12/11 09:53:33;;;;;;;10.37;5.93;;;2.20;94.90;;;;;;4200508;28;20680;-69
2022/12/11 09:55:59;;;;;;;10.40;6.70;;;2.40;91.00;;;;;;4182261;28;20365;-69
2022/12/11 09:58:13;;;;;;;8.43;5.87;;;2.90;90.60;;;;;;4208585;28;20424;-70
2022/12/11 10:00:29;;;;;;;11.73;6.63;;;2.50;79.10;;;;;;4178592;28;20437;-70
2022/12/11 10:02:45;;;;;;;8.13;5.53;;;2.70;74.70;;;;;;4190823;28;20553;-69
2022/12/11 10:05:20;;;;;;;7.80;4.97;;;2.70;82.30;;;;;;4198226;28;20413;-70
2022/12/11 10:07:52;;;;;;;8.50;5.50;;;3.30;75.90;;;;;;4200923;28;20417;-69
2022/12/11 10:10:21;;;;;;;8.30;5.13;;;3.90;75.60;;;;;;4208853;28;21210;-69
2022/12/11 10:12:50;;;;;;;8.00;5.00;;;4.40;77.60;;;;;;4178860;28;20187;-71
2022/12/11 10:15:31;;;;;;;6.97;4.50;;;5.20;80.30;;;;;;4206013;28;20260;-69
2022/12/11 10:17:33;;;;;;;6.63;4.90;;;6.10;77.70;;;;;;4205721;28;20650;-67
2022/12/11 10:19:35;;;;;;;6.37;4.70;;;6.50;67.90;;;;;;4198798;28;20187;-69
2022/12/11 10:21:39;;;;;;;8.20;5.50;;;6.30;66.90;;;;;;4205702;28;20178;-68
2022/12/11 10:23:50;;;;;;;6.40;4.80;;;6.00;67.80;;;;;;4199608;28;20303;-68
2022/12/11 10:26:00;;;;;;;8.30;5.03;;;6.20;65.20;;;;;;4209311;28;20526;-69
2022/12/11 10:28:13;;;;;;;7.47;5.50;;;6.30;63.70;;;;;;4197062;28;20171;-69
2022/12/11 10:30:34;;;;;;;7.97;5.47;;;6.90;68.90;;;;;;4180442;28;20191;-68
2022/12/11 10:32:43;;;;;;;7.73;5.33;;;7.00;65.40;;;;;;4207947;28;20164;-69
2022/12/11 10:34:47;;;;;;;7.40;5.10;;;7.40;72.40;;;;;;4200739;28;20187;-70
2022/12/11 10:36:47;;;;;;;43.40;8.33;;;8.00;64.40;;;;;;4205773;28;20749;-68
2022/12/11 10:38:48;;;;;;;7.47;5.10;;;8.50;68.00;;;;;;4200090;28;20269;-68
2022/12/11 10:40:54;;;;;;;6.57;4.60;;;9.00;57.20;;;;;;4205574;28;20175;-68
2022/12/11 10:42:54;;;;;;;6.83;4.60;;;9.20;57.70;;;;;;4199259;28;20230;-68
2022/12/11 10:45:02;;;;;;;6.57;4.73;;;9.10;53.70;;;;;;4210053;28;20190;-68
2022/12/11 10:47:12;;;;;;;9.20;6.73;;;8.70;52.10;;;;;;4178241;28;20203;-66